Welcome to Northern Hawkes Bay. New Zealand.
PWS Header
      nz Flag



Hit Counter


W3C Valid W3C Valid logo


    Wairoa

Select any of the Stations below to visit their websites.










Historic Data from Weather Underground
Select the location of interest below. Wairoa is the default. Please have patience, this Data is slow to load in.
Northern Hawkes Bay Historical Data
Daily Summary for October 18, 2017 Units:  Metric    English   Both
« Previous Day
Next Day »
Daily Weekly Monthly Yearly Custom
  High: Low: Average:
Temperature: 13.4 °C 8.1 °C 11.1 °C
Dew Point: 11.9 °C 5.5 °C 8.6 °C
Humidity: 99% 67% 85%
Wind Speed: 39.3km/h 0.0km/h 16km/h
Wind Gust: 60.2km/h - -
Wind- - SW
Pressure: 1026.0 hPa 1018.2 hPa -
Precipitation: 2.3 mm    
Historical Graphs
 
 
Tabular Data for October 18, 2017
Time Temperature Dew Point Pressure Wind Wind Speed Wind Gust Humidity Rainfall Rate (Hourly) solar
00:03 9.5 °C 9.3 °C 1018.8 hPa NW 3.5 km/h 7.2 km/h 99% 0.0 mm 0 W/m2
00:08 9.5 °C 9.3 °C 1018.8 hPa NNW 2.6 km/h 7.2 km/h 99% 0.0 mm 0 W/m2
00:13 9.4 °C 9.3 °C 1018.5 hPa NNW 2.6 km/h 6.1 km/h 99% 0.0 mm 0 W/m2
00:18 9.3 °C 9.2 °C 1018.5 hPa NW 2.6 km/h 6.1 km/h 99% 0.0 mm 0 W/m2
00:23 9.3 °C 9.2 °C 1018.5 hPa NW 2.6 km/h 6.1 km/h 99% 0.0 mm 0 W/m2
00:28 9.2 °C 9.1 °C 1018.5 hPa NNW 2.6 km/h 6.1 km/h 99% 0.0 mm 0 W/m2
00:33 9.1 °C 8.9 °C 1018.5 hPa NNW 1.1 km/h 5.0 km/h 99% 0.0 mm 0 W/m2
00:38 9.1 °C 8.9 °C 1018.5 hPa NNW 2.6 km/h 5.0 km/h 99% 0.0 mm 0 W/m2
00:43 9.1 °C 8.9 °C 1018.5 hPa NNW 3.5 km/h 6.1 km/h 99% 0.0 mm 0 W/m2
00:48 9.1 °C 8.9 °C 1018.5 hPa NW 2.6 km/h 6.1 km/h 99% 0.0 mm 0 W/m2
00:53 9.1 °C 8.9 °C 1018.2 hPa NW 2.6 km/h 6.1 km/h 99% 0.0 mm 0 W/m2
00:58 9.0 °C 8.8 °C 1018.5 hPa NW 3.5 km/h 7.2 km/h 99% 0.0 mm 0 W/m2
01:03 9.0 °C 8.8 °C 1018.2 hPa NW 3.5 km/h 7.2 km/h 99% 0.0 mm 0 W/m2
01:08 9.1 °C 8.9 °C 1018.5 hPa NW 3.5 km/h 8.7 km/h 99% 0.0 mm 0 W/m2
01:13 9.0 °C 8.8 °C 1018.5 hPa NW 5.0 km/h 8.7 km/h 99% 0.0 mm 0 W/m2
01:18 9.0 °C 8.8 °C 1018.5 hPa NW 5.0 km/h 8.7 km/h 99% 0.0 mm 0 W/m2
01:23 9.0 °C 8.8 °C 1018.5 hPa NW 3.5 km/h 8.7 km/h 99% 0.0 mm 0 W/m2
01:28 9.0 °C 8.8 °C 1018.5 hPa NNW 5.0 km/h 8.7 km/h 99% 0.0 mm 0 W/m2
01:33 8.9 °C 8.8 °C 1018.5 hPa NNW 3.5 km/h 9.7 km/h 99% 0.0 mm 0 W/m2
01:38 8.9 °C 8.8 °C 1018.5 hPa NNW 3.5 km/h 9.7 km/h 99% 0.0 mm 0 W/m2
01:43 8.8 °C 8.7 °C 1018.5 hPa NW 3.5 km/h 8.7 km/h 99% 0.0 mm 0 W/m2
01:48 8.7 °C 8.6 °C 1018.5 hPa NW 3.5 km/h 7.2 km/h 99% 0.0 mm 0 W/m2
01:53 8.6 °C 8.4 °C 1018.5 hPa NW 5.0 km/h 8.7 km/h 99% 0.0 mm 0 W/m2
01:58 8.5 °C 8.3 °C 1018.5 hPa NW 2.6 km/h 8.7 km/h 99% 0.0 mm 0 W/m2
02:03 8.5 °C 8.3 °C 1018.5 hPa NNW 3.5 km/h 7.2 km/h 99% 0.0 mm 0 W/m2
02:08 8.4 °C 8.3 °C 1018.5 hPa NNW 3.5 km/h 7.2 km/h 99% 0.0 mm 0 W/m2
02:13 8.3 °C 8.2 °C 1018.5 hPa NNW 2.6 km/h 5.0 km/h 99% 0.0 mm 0 W/m2
02:18 8.3 °C 8.2 °C 1018.5 hPa NW 3.5 km/h 6.1 km/h 99% 0.0 mm 0 W/m2
02:23 8.2 °C 8.1 °C 1018.5 hPa NW 1.1 km/h 6.1 km/h 99% 0.0 mm 0 W/m2
02:33 8.1 °C 7.9 °C 1018.5 hPa NNW 2.6 km/h 5.0 km/h 99% 0.0 mm 0 W/m2
02:40 8.1 °C 7.9 °C 1018.5 hPa NW 1.1 km/h 5.0 km/h 99% 0.0 mm 0 W/m2
02:45 8.1 °C 7.9 °C 1018.5 hPa NW 2.6 km/h 5.0 km/h 99% 0.0 mm 0 W/m2
02:50 8.1 °C 7.9 °C 1018.5 hPa NNW 1.1 km/h 5.0 km/h 99% 0.0 mm 0 W/m2
02:55 8.1 °C 7.9 °C 1018.5 hPa NW 1.1 km/h 5.0 km/h 99% 0.0 mm 0 W/m2
03:00 8.1 °C 7.9 °C 1018.8 hPa NNW 2.6 km/h 7.2 km/h 99% 0.0 mm 0 W/m2
03:05 8.2 °C 8.1 °C 1018.5 hPa NNW 3.5 km/h 7.2 km/h 99% 0.0 mm 0 W/m2
03:10 8.2 °C 8.1 °C 1018.8 hPa NW 3.5 km/h 7.2 km/h 99% 0.0 mm 0 W/m2
03:15 8.2 °C 8.1 °C 1018.8 hPa NW 2.6 km/h 7.2 km/h 99% 0.0 mm 0 W/m2
03:20 8.2 °C 8.1 °C 1018.8 hPa NW 6.1 km/h 8.7 km/h 99% 0.0 mm 0 W/m2
03:25 8.3 °C 8.2 °C 1018.8 hPa NW 3.5 km/h 8.7 km/h 99% 0.0 mm 0 W/m2
03:30 8.4 °C 8.3 °C 1018.8 hPa NNW 2.6 km/h 8.7 km/h 99% 0.0 mm 0 W/m2
03:36 8.4 °C 8.3 °C 1018.5 hPa Calm   6.1 km/h 99% 0.0 mm 0 W/m2
03:41 8.5 °C 8.3 °C 1018.8 hPa NNW 1.1 km/h 5.0 km/h 99% 0.0 mm 0 W/m2
03:46 8.4 °C 8.3 °C 1018.8 hPa NNW 2.6 km/h 5.0 km/h 99% 0.0 mm 0 W/m2
03:51 8.6 °C 8.4 °C 1018.8 hPa NNW 3.5 km/h 6.1 km/h 99% 0.0 mm 0 W/m2
03:54 8.6 °C 8.4 °C 1018.8 hPa NNW 2.6 km/h 6.1 km/h 99% 0.0 mm 0 W/m2
03:59 8.6 °C 8.4 °C 1018.8 hPa NNW 1.1 km/h 6.1 km/h 99% 0.0 mm 0 W/m2
04:04 8.6 °C 8.4 °C 1018.8 hPa NNW 2.6 km/h 6.1 km/h 99% 0.0 mm 0 W/m2
04:09 8.6 °C 8.4 °C 1018.8 hPa Calm   6.1 km/h 99% 0.0 mm 0 W/m2
04:14 8.6 °C 8.4 °C 1018.8 hPa NW 1.1 km/h 6.1 km/h 99% 0.0 mm 0 W/m2
04:19 8.6 °C 8.4 °C 1018.8 hPa NNW 1.1 km/h 8.7 km/h 99% 0.0 mm 0 W/m2
04:24 8.8 °C 8.7 °C 1018.8 hPa NNW 5.0 km/h 9.7 km/h 99% 0.0 mm 0 W/m2
04:29 8.9 °C 8.8 °C 1018.8 hPa Calm   9.7 km/h 99% 0.0 mm 0 W/m2
04:34 8.9 °C 8.8 °C 1018.8 hPa WNW 5.0 km/h 8.7 km/h 99% 0.0 mm 0 W/m2
04:39 8.9 °C 8.8 °C 1018.8 hPa WNW 1.1 km/h 8.7 km/h 99% 0.0 mm 0 W/m2
04:44 9.0 °C 8.8 °C 1018.8 hPa WNW 1.1 km/h 8.7 km/h 99% 0.0 mm 0 W/m2
04:49 10.2 °C 10.1 °C 1018.8 hPa WSW 9.7 km/h 19.5 km/h 99% 0.0 mm 0 W/m2
04:54 11.8 °C 11.5 °C 1019.2 hPa SW 13.4 km/h 20.9 km/h 98% 0.0 mm 0 W/m2
04:59 12.4 °C 11.9 °C 1019.2 hPa SW 12.2 km/h 27.0 km/h 97% 0.0 mm 0 W/m2
05:04 12.7 °C 11.6 °C 1019.2 hPa SW 18.3 km/h 27.0 km/h 93% 0.0 mm 0 W/m2
05:09 12.8 °C 11.1 °C 1019.2 hPa SSW 9.7 km/h 27.0 km/h 89% 0.0 mm 0 W/m2
05:14 12.8 °C 10.5 °C 1019.5 hPa SW 15.8 km/h 27.0 km/h 86% 0.0 mm 0 W/m2
05:19 12.9 °C 10.1 °C 1019.5 hPa SSW 9.7 km/h 27.0 km/h 83% 0.0 mm 0 W/m2
05:24 12.9 °C 9.9 °C 1019.5 hPa SSW 15.8 km/h 27.0 km/h 82% 0.0 mm 0 W/m2
05:29 12.9 °C 9.3 °C 1019.5 hPa SSW 14.8 km/h 24.5 km/h 79% 0.0 mm 0 W/m2
05:34 13.0 °C 9.4 °C 1019.5 hPa SSW 11.1 km/h 24.5 km/h 79% 0.0 mm 0 W/m2
05:39 12.9 °C 9.3 °C 1019.5 hPa SSW 12.2 km/h 21.9 km/h 79% 0.0 mm 0 W/m2
05:44 12.9 °C 8.9 °C 1019.5 hPa South 15.8 km/h 24.5 km/h 77% 0.0 mm 0 W/m2
05:49 12.8 °C 8.9 °C 1019.5 hPa South 12.2 km/h 24.5 km/h 77% 0.0 mm 0 W/m2
05:54 12.8 °C 9.1 °C 1019.9 hPa SSW 12.2 km/h 21.9 km/h 78% 0.0 mm 0 W/m2
05:59 12.8 °C 9.3 °C 1019.9 hPa SSW 11.1 km/h 21.9 km/h 79% 0.0 mm 0 W/m2
06:05 12.8 °C 9.6 °C 1019.9 hPa SSW 15.8 km/h 25.6 km/h 81% 0.0 mm 0 W/m2
06:10 12.7 °C 9.2 °C 1019.9 hPa SSW 7.2 km/h 25.6 km/h 79% 0.0 mm 0 W/m2
06:16 12.6 °C 9.1 °C 1019.5 hPa SSW 11.1 km/h 23.3 km/h 79% 0.0 mm 0 W/m2
06:21 12.6 °C 9.1 °C 1019.9 hPa SSW 13.4 km/h 23.3 km/h 79% 0.0 mm 0 W/m2
06:26 12.5 °C 8.6 °C 1019.9 hPa SSW 13.4 km/h 23.3 km/h 77% 0.0 mm 0 W/m2
06:31 12.6 °C 8.7 °C 1019.9 hPa SSW 14.8 km/h 23.3 km/h 77% 0.0 mm 0 W/m2
06:36 12.6 °C 8.7 °C 1019.5 hPa SSW 11.1 km/h 20.9 km/h 77% 0.0 mm 0 W/m2
06:41 12.6 °C 8.7 °C 1019.9 hPa SSW 12.2 km/h 20.9 km/h 77% 0.0 mm 2 W/m2
06:46 12.6 °C 8.7 °C 1019.9 hPa SSW 9.7 km/h 20.9 km/h 77% 0.0 mm 4 W/m2
06:51 12.6 °C 9.1 °C 1019.9 hPa SW 9.7 km/h 18.3 km/h 79% 0.0 mm 3 W/m2
06:56 12.6 °C 9.4 °C 1019.9 hPa SSW 6.1 km/h 18.3 km/h 81% 0.0 mm 3 W/m2
07:01 12.5 °C 9.3 °C 1019.9 hPa SSW 8.7 km/h 17.2 km/h 81% 0.0 mm 11 W/m2
07:06 12.5 °C 9.5 °C 1019.9 hPa SSW 14.8 km/h 18.3 km/h 82% 0.0 mm 21 W/m2
07:11 12.5 °C 9.5 °C 1019.9 hPa SSW 12.2 km/h 18.3 km/h 82% 0.0 mm 17 W/m2
07:16 12.4 °C 9.4 °C 1019.9 hPa SSW 11.1 km/h 19.5 km/h 82% 0.0 mm 20 W/m2
07:21 12.3 °C 9.3 °C 1019.9 hPa South 9.7 km/h 19.5 km/h 82% 0.0 mm 18 W/m2
07:26 12.4 °C 9.4 °C 1019.9 hPa South 7.2 km/h 17.2 km/h 82% 0.0 mm 23 W/m2
07:31 12.5 °C 9.5 °C 1019.9 hPa SSW 9.7 km/h 14.8 km/h 82% 0.0 mm 32 W/m2
07:36 12.6 °C 9.6 °C 1019.9 hPa SSW 12.2 km/h 15.8 km/h 82% 0.0 mm 38 W/m2
07:41 12.6 °C 9.4 °C 1019.9 hPa SW 9.7 km/h 15.8 km/h 81% 0.0 mm 43 W/m2
07:46 12.7 °C 9.5 °C 1019.9 hPa SW 11.1 km/h 15.8 km/h 81% 0.0 mm 53 W/m2
07:51 12.6 °C 9.6 °C 1019.9 hPa SW 7.2 km/h 17.2 km/h 82% 0.0 mm 72 W/m2
07:56 12.6 °C 9.6 °C 1019.9 hPa SW 8.7 km/h 18.3 km/h 82% 0.0 mm 89 W/m2
08:01 12.7 °C 9.5 °C 1020.2 hPa SW 9.7 km/h 18.3 km/h 81% 0.0 mm 83 W/m2
08:06 12.8 °C 9.6 °C 1020.2 hPa SW 7.2 km/h 17.2 km/h 81% 0.0 mm 79 W/m2
08:11 12.9 °C 9.7 °C 1020.2 hPa SW 3.5 km/h 15.8 km/h 81% 0.0 mm 82 W/m2
08:16 12.9 °C 9.7 °C 1020.2 hPa SW 5.0 km/h 18.3 km/h 81% 0.0 mm 97 W/m2
08:21 13.0 °C 9.8 °C 1020.2 hPa SW 8.7 km/h 18.3 km/h 81% 0.0 mm 108 W/m2
08:26 13.1 °C 10.1 °C 1019.9 hPa SW 5.0 km/h 17.2 km/h 82% 0.0 mm 130 W/m2
08:31 13.1 °C 10.1 °C 1020.2 hPa SW 9.7 km/h 17.2 km/h 82% 0.0 mm 147 W/m2
08:36 13.0 °C 10.2 °C 1020.2 hPa SW 9.7 km/h 18.3 km/h 83% 0.0 mm 147 W/m2
08:41 13.0 °C 10.6 °C 1020.2 hPa SW 3.5 km/h 18.3 km/h 85% 0.0 mm 121 W/m2
08:46 12.9 °C 10.6 °C 1019.9 hPa SW 8.7 km/h 15.8 km/h 86% 0.0 mm 68 W/m2
08:51 12.5 °C 10.2 °C 1019.9 hPa SW 7.2 km/h 15.8 km/h 86% 0.0 mm 63 W/m2
08:57 12.3 °C 10.2 °C 1020.2 hPa SW 3.5 km/h 15.8 km/h 87% 0.0 mm 88 W/m2
09:02 12.4 °C 10.3 °C 1019.9 hPa SW 11.1 km/h 15.8 km/h 87% 0.0 mm 98 W/m2
09:07 12.5 °C 9.9 °C 1019.9 hPa SW 8.7 km/h 17.2 km/h 84% 0.0 mm 106 W/m2
09:12 12.6 °C 9.8 °C 1019.9 hPa SSW 8.7 km/h 17.2 km/h 83% 0.0 mm 119 W/m2
09:17 12.9 °C 10.1 °C 1019.9 hPa SSW 14.8 km/h 18.3 km/h 83% 0.0 mm 137 W/m2
09:22 13.0 °C 9.8 °C 1019.9 hPa SW 7.2 km/h 18.3 km/h 81% 0.0 mm 149 W/m2
09:27 13.1 °C 9.7 °C 1019.9 hPa SSW 13.4 km/h 18.3 km/h 80% 0.0 mm 152 W/m2
09:32 13.2 °C 10.0 °C 1019.9 hPa South 7.2 km/h 18.3 km/h 81% 0.0 mm 178 W/m2
09:37 13.4 °C 10.2 °C 1019.9 hPa SSW 12.2 km/h 18.3 km/h 81% 0.0 mm 196 W/m2
09:42 13.2 °C 10.2 °C 1020.2 hPa SSW 12.2 km/h 21.9 km/h 82% 0.0 mm 151 W/m2
09:47 13.1 °C 9.9 °C 1020.2 hPa SSW 13.4 km/h 21.9 km/h 81% 0.0 mm 147 W/m2
09:52 12.9 °C 9.9 °C 1020.5 hPa SW 14.8 km/h 21.9 km/h 82% 0.0 mm 125 W/m2
09:57 12.8 °C 9.8 °C 1020.5 hPa SW 11.1 km/h 20.9 km/h 82% 0.0 mm 84 W/m2
10:02 12.5 °C 9.7 °C 1020.5 hPa SW 8.7 km/h 20.9 km/h 83% 0.0 mm 54 W/m2
10:07 12.2 °C 9.6 °C 1020.9 hPa SW 5.0 km/h 18.3 km/h 84% 0.0 mm 44 W/m2
10:12 12.1 °C 9.7 °C 1020.9 hPa SW 13.4 km/h 20.9 km/h 85% 0.0 mm 59 W/m2
10:17 12.2 °C 9.8 °C 1020.5 hPa SW 13.4 km/h 20.9 km/h 85% 0.0 mm 66 W/m2
10:22 12.2 °C 9.6 °C 1020.9 hPa SW 11.1 km/h 21.9 km/h 84% 0.0 mm 75 W/m2
10:27 12.3 °C 9.7 °C 1020.9 hPa SW 15.8 km/h 23.3 km/h 84% 0.0 mm 76 W/m2
10:32 12.4 °C 9.6 °C 1020.9 hPa SW 15.8 km/h 23.3 km/h 83% 0.0 mm 89 W/m2
10:37 12.4 °C 9.6 °C 1020.9 hPa SW 9.7 km/h 24.5 km/h 83% 0.0 mm 103 W/m2
10:42 12.5 °C 9.5 °C 1020.9 hPa SW 24.5 km/h 35.6 km/h 82% 0.0 mm 101 W/m2
10:47 12.4 °C 9.6 °C 1020.9 hPa SW 17.2 km/h 35.6 km/h 83% 0.0 mm 96 W/m2
10:52 12.2 °C 9.4 °C 1020.9 hPa SW 17.2 km/h 35.6 km/h 83% 0.0 mm 108 W/m2
10:57 12.2 °C 9.6 °C 1020.9 hPa SW 17.2 km/h 25.6 km/h 84% 0.0 mm 117 W/m2
11:02 12.2 °C 9.8 °C 1020.9 hPa SW 15.8 km/h 23.3 km/h 85% 0.0 mm 111 W/m2
11:07 12.1 °C 9.7 °C 1021.2 hPa WSW 14.8 km/h 24.5 km/h 85% 0.0 mm 110 W/m2
11:12 12.1 °C 9.8 °C 1020.9 hPa WSW 14.8 km/h 24.5 km/h 86% 0.0 mm 106 W/m2
11:17 12.2 °C 9.9 °C 1021.2 hPa SW 11.1 km/h 21.9 km/h 86% 0.0 mm 115 W/m2
11:22 12.3 °C 10.1 °C 1020.9 hPa SSW 13.4 km/h 20.9 km/h 86% 0.0 mm 125 W/m2
11:27 12.2 °C 9.8 °C 1021.2 hPa WSW 17.2 km/h 27.0 km/h 85% 0.0 mm 130 W/m2
11:32 12.3 °C 9.8 °C 1021.2 hPa WSW 18.3 km/h 29.4 km/h 85% 0.0 mm 120 W/m2
11:37 12.3 °C 9.8 °C 1021.2 hPa SW 13.4 km/h 29.4 km/h 85% 0.0 mm 114 W/m2
11:42 12.4 °C 9.8 °C 1021.2 hPa SW 23.3 km/h 30.6 km/h 84% 0.0 mm 55 W/m2
11:47 12.0 °C 9.9 °C 1021.6 hPa SSW 21.9 km/h 35.6 km/h 87% 0.0 mm 98 W/m2
11:52 11.9 °C 10.5 °C 1021.2 hPa SSW 33.1 km/h 42.8 km/h 91% 0.0 mm 112 W/m2
11:57 11.7 °C 10.3 °C 1021.6 hPa SSW 21.9 km/h 42.8 km/h 91% 0.0 mm 115 W/m2
12:02 11.6 °C 10.3 °C 1021.2 hPa SSW 21.9 km/h 42.8 km/h 92% 0.0 mm 97 W/m2
12:07 11.4 °C 10.2 °C 1021.6 hPa SSW 15.8 km/h 34.3 km/h 92% 0.0 mm 105 W/m2
12:12 11.3 °C 10.4 °C 1021.6 hPa SSW 24.5 km/h 35.6 km/h 94% 0.0 mm 103 W/m2
12:17 11.1 °C 10.2 °C 1021.6 hPa SSW 18.3 km/h 43.9 km/h 94% 0.0 mm 137 W/m2
12:22 10.9 °C 10.1 °C 1021.6 hPa SSW 17.2 km/h 43.9 km/h 95% 0.0 mm 107 W/m2
12:27 11.1 °C 10.3 °C 1021.6 hPa SSW 14.8 km/h 40.4 km/h 95% 0.0 mm 111 W/m2
12:32 11.2 °C 10.4 °C 1021.2 hPa SSW 21.9 km/h 35.6 km/h 95% 0.0 mm 126 W/m2
12:37 11.4 °C 10.6 °C 1021.6 hPa SSW 30.6 km/h 37.8 km/h 95% 0.3 mm 109 W/m2
12:38 11.3 °C 10.6 °C 1021.6 hPa SSW 23.3 km/h 37.8 km/h 95% 0.3 mm 117 W/m2
12:43 11.4 °C 10.4 °C 1021.6 hPa SSW 17.2 km/h 37.8 km/h 94% 0.3 mm 141 W/m2
12:48 11.4 °C 10.3 °C 1021.6 hPa SSW 20.9 km/h 33.1 km/h 93% 0.3 mm 149 W/m2
12:53 11.5 °C 10.2 °C 1021.6 hPa SW 17.2 km/h 33.1 km/h 92% 0.3 mm 108 W/m2
12:58 11.4 °C 9.8 °C 1021.6 hPa SW 23.3 km/h 36.7 km/h 90% 0.3 mm 104 W/m2
13:03 11.3 °C 9.9 °C 1021.2 hPa SSW 23.3 km/h 36.7 km/h 91% 0.3 mm 87 W/m2
13:08 11.4 °C 10.2 °C 1021.6 hPa SSW 14.8 km/h 35.6 km/h 92% 0.3 mm 88 W/m2
13:13 11.0 °C 9.8 °C 1021.6 hPa SSW 21.9 km/h 35.6 km/h 92% 0.3 mm 143 W/m2
13:18 11.2 °C 9.9 °C 1021.6 hPa SSW 21.9 km/h 35.6 km/h 92% 0.3 mm 134 W/m2
13:23 11.3 °C 10.2 °C 1021.6 hPa SW 21.9 km/h 36.7 km/h 93% 0.3 mm 204 W/m2
13:39 11.7 °C 10.1 °C 1021.6 hPa SSW 15.8 km/h 35.6 km/h 90% 0.0 mm 124 W/m2
13:44 11.4 °C 9.8 °C 1021.6 hPa SSW 21.9 km/h 37.8 km/h 90% 0.0 mm 168 W/m2
13:49 11.5 °C 9.8 °C 1021.6 hPa SSW 23.3 km/h 37.8 km/h 89% 0.0 mm 149 W/m2
13:54 11.7 °C 9.6 °C 1021.9 hPa SSW 19.5 km/h 35.6 km/h 87% 0.0 mm 178 W/m2
13:59 11.9 °C 10.0 °C 1021.6 hPa SSW 20.9 km/h 35.6 km/h 88% 0.0 mm 184 W/m2
14:04 11.8 °C 10.1 °C 1021.9 hPa SSW 18.3 km/h 33.1 km/h 89% 0.0 mm 184 W/m2
14:09 11.7 °C 9.9 °C 1021.6 hPa SSW 18.3 km/h 33.1 km/h 89% 0.0 mm 124 W/m2
14:14 11.6 °C 9.8 °C 1021.9 hPa SSW 23.3 km/h 33.1 km/h 89% 0.0 mm 124 W/m2
14:19 11.5 °C 9.6 °C 1021.9 hPa SSW 24.5 km/h 36.7 km/h 88% 0.0 mm 91 W/m2
14:24 11.2 °C 8.8 °C 1021.6 hPa SSW 19.5 km/h 42.8 km/h 85% 0.0 mm 140 W/m2
14:29 11.3 °C 9.1 °C 1021.9 hPa SSW 17.2 km/h 42.8 km/h 86% 0.0 mm 131 W/m2
14:34 11.5 °C 9.4 °C 1021.9 hPa SSW 23.3 km/h 34.3 km/h 87% 0.0 mm 104 W/m2
14:39 11.4 °C 8.9 °C 1021.9 hPa SSW 18.3 km/h 35.6 km/h 85% 0.0 mm 101 W/m2
14:44 11.6 °C 9.2 °C 1021.9 hPa SSW 21.9 km/h 39.3 km/h 85% 0.3 mm 120 W/m2
14:49 11.7 °C 9.3 °C 1021.9 hPa SSW 19.5 km/h 39.3 km/h 85% 0.3 mm 130 W/m2
14:54 11.9 °C 9.1 °C 1021.9 hPa SSW 17.2 km/h 34.3 km/h 83% 0.3 mm 164 W/m2
14:59 12.2 °C 9.2 °C 1021.9 hPa South 20.9 km/h 34.3 km/h 82% 0.3 mm 243 W/m2
15:04 12.4 °C 9.4 °C 1021.9 hPa South 14.8 km/h 33.1 km/h 82% 0.3 mm 122 W/m2
15:09 12.4 °C 9.4 °C 1021.6 hPa South 23.3 km/h 35.6 km/h 82% 0.3 mm 157 W/m2
15:14 12.3 °C 8.6 °C 1021.6 hPa South 20.9 km/h 35.6 km/h 78% 0.3 mm 134 W/m2
15:19 12.4 °C 9.1 °C 1021.6 hPa SSW 21.9 km/h 41.7 km/h 80% 0.3 mm 121 W/m2
15:24 12.3 °C 8.8 °C 1021.6 hPa SSW 24.5 km/h 41.7 km/h 79% 0.3 mm 91 W/m2
15:29 12.2 °C 9.2 °C 1021.6 hPa SSW 19.5 km/h 41.7 km/h 82% 0.3 mm 87 W/m2
15:34 12.0 °C 9.0 °C 1021.9 hPa SSW 24.5 km/h 41.7 km/h 82% 0.3 mm 73 W/m2
15:39 12.0 °C 8.8 °C 1021.2 hPa South 19.5 km/h 41.7 km/h 81% 0.3 mm 85 W/m2
15:44 12.1 °C 8.6 °C 1021.6 hPa South 27.0 km/h 40.4 km/h 79% 0.0 mm 87 W/m2
15:49 12.2 °C 8.7 °C 1021.6 hPa SSW 24.5 km/h 45.4 km/h 79% 0.0 mm 107 W/m2
15:54 12.3 °C 9.1 °C 1021.6 hPa SSW 23.3 km/h 45.4 km/h 81% 0.0 mm 83 W/m2
15:59 12.3 °C 8.4 °C 1021.2 hPa SSW 27.0 km/h 41.7 km/h 77% 0.0 mm 85 W/m2
16:04 12.3 °C 8.4 °C 1021.6 hPa SSW 18.3 km/h 50.0 km/h 77% 0.0 mm 106 W/m2
16:09 12.3 °C 8.2 °C 1021.6 hPa South 25.6 km/h 50.0 km/h 76% 0.0 mm 118 W/m2
16:15 12.3 °C 7.8 °C 1021.6 hPa South 25.6 km/h 45.4 km/h 74% 0.0 mm 129 W/m2
16:23 12.4 °C 7.9 °C 1021.9 hPa SSW 30.6 km/h 48.9 km/h 74% 0.0 mm 84 W/m2
16:26 12.3 °C 7.6 °C 1021.9 hPa SSW 28.0 km/h 48.9 km/h 73% 0.0 mm 97 W/m2
16:28 12.3 °C 7.6 °C 1021.9 hPa SSW 19.5 km/h 47.9 km/h 73% 0.0 mm 124 W/m2
16:33 12.5 °C 8.0 °C 1021.9 hPa SSW 30.6 km/h 46.5 km/h 74% 0.0 mm 123 W/m2
16:35 12.5 °C 8.0 °C 1021.9 hPa SSW 27.0 km/h 45.4 km/h 74% 0.0 mm 118 W/m2
16:40 12.5 °C 8.0 °C 1021.9 hPa SSW 36.7 km/h 52.6 km/h 74% 0.0 mm 166 W/m2
16:41 12.5 °C 8.0 °C 1021.9 hPa SSW 36.7 km/h 52.6 km/h 74% 0.0 mm 173 W/m2
16:47 12.7 °C 8.2 °C 1021.6 hPa South 23.3 km/h 60.2 km/h 74% 0.0 mm 181 W/m2
16:49 12.8 °C 8.3 °C 1021.9 hPa South 28.0 km/h 60.2 km/h 74% 0.0 mm 194 W/m2
16:54 12.5 °C 7.6 °C 1021.9 hPa South 21.9 km/h 60.2 km/h 72% 0.0 mm 135 W/m2
16:58 12.5 °C 7.6 °C 1021.9 hPa South 28.0 km/h 60.2 km/h 72% 0.0 mm 128 W/m2
17:03 12.4 °C 7.7 °C 1022.2 hPa South 33.1 km/h 47.9 km/h 73% 0.0 mm 135 W/m2
17:08 12.4 °C 7.9 °C 1022.2 hPa South 31.7 km/h 47.9 km/h 74% 0.0 mm 111 W/m2
17:13 12.3 °C 7.6 °C 1022.2 hPa SSW 33.1 km/h 47.9 km/h 73% 0.0 mm 87 W/m2
17:18 12.2 °C 7.7 °C 1022.6 hPa SSW 34.3 km/h 47.9 km/h 74% 0.0 mm 93 W/m2
17:23 12.1 °C 7.4 °C 1022.6 hPa SW 18.3 km/h 51.5 km/h 73% 0.0 mm 87 W/m2
17:28 12.2 °C 7.3 °C 1022.6 hPa WSW 25.6 km/h 51.5 km/h 72% 0.0 mm 79 W/m2
17:33 12.2 °C 7.3 °C 1022.9 hPa SSW 13.4 km/h 37.8 km/h 72% 0.0 mm 77 W/m2
17:38 12.1 °C 7.2 °C 1022.6 hPa SSW 21.9 km/h 41.7 km/h 72% 0.0 mm 68 W/m2
17:43 12.1 °C 7.2 °C 1022.9 hPa SSW 21.9 km/h 41.7 km/h 72% 0.0 mm 57 W/m2
17:48 12.2 °C 7.5 °C 1023.2 hPa SW 28.0 km/h 43.9 km/h 73% 0.0 mm 52 W/m2
17:53 12.1 °C 6.2 °C 1022.9 hPa SSW 34.3 km/h 45.4 km/h 67% 0.0 mm 52 W/m2
17:58 12.1 °C 6.8 °C 1023.2 hPa SSW 28.0 km/h 45.4 km/h 70% 0.0 mm 75 W/m2
18:08 11.9 °C 6.8 °C 1023.6 hPa South 30.6 km/h 50.0 km/h 71% 0.0 mm 44 W/m2
18:13 11.9 °C 6.2 °C 1023.6 hPa SSW 31.7 km/h 50.0 km/h 68% 0.0 mm 55 W/m2
18:18 11.9 °C 6.8 °C 1023.2 hPa SSW 15.8 km/h 47.9 km/h 71% 0.0 mm 48 W/m2
18:23 12.1 °C 7.0 °C 1023.2 hPa SSW 30.6 km/h 47.9 km/h 71% 0.0 mm 50 W/m2
18:28 12.0 °C 6.9 °C 1023.2 hPa SSW 23.3 km/h 40.4 km/h 71% 0.0 mm 32 W/m2
18:33 11.9 °C 7.2 °C 1023.6 hPa SSW 31.7 km/h 47.9 km/h 73% 0.0 mm 45 W/m2
18:38 11.8 °C 7.1 °C 1023.6 hPa SSW 23.3 km/h 47.9 km/h 73% 0.0 mm 35 W/m2
18:43 11.7 °C 6.6 °C 1023.6 hPa SW 30.6 km/h 45.4 km/h 71% 0.0 mm 27 W/m2
18:48 11.7 °C 6.2 °C 1023.6 hPa SSW 37.8 km/h 51.5 km/h 69% 0.0 mm 23 W/m2
18:53 11.6 °C 5.9 °C 1023.6 hPa SSW 29.4 km/h 51.5 km/h 68% 0.0 mm 26 W/m2
18:58 11.6 °C 6.5 °C 1023.9 hPa SSW 31.7 km/h 51.5 km/h 71% 0.0 mm 24 W/m2
19:03 11.5 °C 6.8 °C 1023.9 hPa SSW 30.6 km/h 50.0 km/h 73% 0.0 mm 20 W/m2
19:08 11.5 °C 6.4 °C 1024.3 hPa South 33.1 km/h 47.9 km/h 71% 0.0 mm 12 W/m2
19:13 11.5 °C 6.0 °C 1023.9 hPa South 39.3 km/h 55.0 km/h 69% 0.0 mm 8 W/m2
19:18 11.4 °C 5.9 °C 1023.9 hPa South 29.4 km/h 55.0 km/h 69% 0.0 mm 4 W/m2
19:23 11.5 °C 6.6 °C 1024.3 hPa SSW 27.0 km/h 60.2 km/h 72% 0.0 mm 2 W/m2
19:28 11.4 °C 5.5 °C 1024.3 hPa SSW 33.1 km/h 60.2 km/h 67% 0.0 mm 0 W/m2
19:33 11.3 °C 6.2 °C 1024.3 hPa SSW 31.7 km/h 51.5 km/h 71% 0.0 mm 0 W/m2
19:38 11.3 °C 6.4 °C 1024.3 hPa SSW 36.7 km/h 51.5 km/h 72% 0.0 mm 0 W/m2
19:43 11.3 °C 6.7 °C 1024.3 hPa SSW 20.9 km/h 47.9 km/h 73% 0.0 mm 0 W/m2
19:48 11.3 °C 6.8 °C 1024.3 hPa South 27.0 km/h 47.9 km/h 74% 0.0 mm 0 W/m2
20:06 11.1 °C 6.2 °C 1024.3 hPa SSW 27.0 km/h 42.8 km/h 72% 0.0 mm 0 W/m2
20:11 11.0 °C 6.6 °C 1024.3 hPa SSW 24.5 km/h 39.3 km/h 74% 0.0 mm 0 W/m2
20:16 11.0 °C 6.9 °C 1024.3 hPa SSW 23.3 km/h 37.8 km/h 76% 0.0 mm 0 W/m2
20:21 10.9 °C 7.1 °C 1024.6 hPa SSW 20.9 km/h 42.8 km/h 77% 0.0 mm 0 W/m2
20:26 10.9 °C 6.7 °C 1024.9 hPa SSW 19.5 km/h 42.8 km/h 75% 0.0 mm 0 W/m2
20:31 10.9 °C 6.7 °C 1024.6 hPa SSW 25.6 km/h 40.4 km/h 75% 0.0 mm 0 W/m2
20:32 10.9 °C 6.7 °C 1024.6 hPa South 28.0 km/h 40.4 km/h 75% 0.0 mm 0 W/m2
20:37 10.9 °C 6.7 °C 1024.9 hPa SSW 25.6 km/h 46.5 km/h 75% 0.0 mm 0 W/m2
20:42 11.0 °C 6.6 °C 1024.9 hPa SSW 25.6 km/h 46.5 km/h 74% 0.0 mm 0 W/m2
20:47 10.9 °C 6.7 °C 1024.9 hPa SSW 21.9 km/h 45.4 km/h 75% 0.0 mm 0 W/m2
20:52 10.9 °C 6.8 °C 1024.9 hPa SSW 18.3 km/h 45.4 km/h 76% 0.0 mm 0 W/m2
20:57 10.9 °C 7.1 °C 1024.9 hPa SSW 18.3 km/h 39.3 km/h 77% 0.0 mm 0 W/m2
21:02 10.8 °C 7.3 °C 1024.9 hPa SSW 17.2 km/h 34.3 km/h 79% 0.0 mm 0 W/m2
21:07 10.9 °C 7.1 °C 1025.3 hPa SSW 24.5 km/h 37.8 km/h 77% 0.0 mm 0 W/m2
21:12 10.6 °C 6.7 °C 1025.3 hPa SSW 30.6 km/h 48.9 km/h 77% 0.0 mm 0 W/m2
21:17 10.1 °C 6.6 °C 1025.3 hPa SSW 27.0 km/h 48.9 km/h 79% 0.0 mm 0 W/m2
21:22 10.0 °C 7.1 °C 1025.3 hPa SSW 18.3 km/h 40.4 km/h 82% 0.0 mm 0 W/m2
21:27 10.0 °C 7.6 °C 1025.3 hPa SSW 15.8 km/h 40.4 km/h 85% 0.0 mm 0 W/m2
21:32 9.9 °C 7.7 °C 1025.3 hPa SSW 20.9 km/h 34.3 km/h 86% 0.0 mm 0 W/m2
21:37 10.0 °C 7.4 °C 1025.3 hPa SW 19.5 km/h 33.1 km/h 84% 0.0 mm 0 W/m2
21:42 10.2 °C 7.4 °C 1025.3 hPa SW 17.2 km/h 35.6 km/h 83% 0.0 mm 0 W/m2
21:47 10.3 °C 7.6 °C 1025.6 hPa SW 20.9 km/h 36.7 km/h 83% 0.0 mm 0 W/m2
21:52 10.5 °C 7.6 °C 1025.6 hPa SSW 27.0 km/h 41.7 km/h 82% 0.3 mm 0 W/m2
21:57 9.3 °C 6.9 °C 1025.6 hPa SSW 28.0 km/h 54.1 km/h 85% 0.5 mm 0 W/m2
22:02 8.7 °C 6.8 °C 1026.0 hPa SSW 19.5 km/h 54.1 km/h 88% 1.0 mm 0 W/m2
22:07 8.6 °C 6.7 °C 1025.6 hPa South 18.3 km/h 50.0 km/h 88% 1.0 mm 0 W/m2
22:12 8.7 °C 7.0 °C 1025.6 hPa SSW 11.1 km/h 30.6 km/h 89% 1.0 mm 0 W/m2
22:17 9.1 °C 7.4 °C 1025.6 hPa SSW 27.0 km/h 34.3 km/h 89% 1.3 mm 0 W/m2
22:22 9.1 °C 7.4 °C 1025.6 hPa SSW 39.3 km/h 52.6 km/h 89% 1.3 mm 0 W/m2
22:27 8.7 °C 7.5 °C 1025.6 hPa SSW 21.9 km/h 52.6 km/h 92% 1.5 mm 0 W/m2
22:32 8.7 °C 7.8 °C 1025.6 hPa SSW 21.9 km/h 48.9 km/h 94% 1.5 mm 0 W/m2
22:37 9.0 °C 7.9 °C 1025.3 hPa SSW 19.5 km/h 31.7 km/h 93% 1.5 mm 0 W/m2
22:42 9.3 °C 7.9 °C 1025.6 hPa SSW 23.3 km/h 30.6 km/h 91% 1.5 mm 0 W/m2
22:47 9.6 °C 7.9 °C 1025.6 hPa SW 20.9 km/h 31.7 km/h 89% 1.3 mm 0 W/m2
22:52 9.9 °C 7.8 °C 1025.6 hPa SW 20.9 km/h 36.7 km/h 87% 1.3 mm 0 W/m2
22:57 9.7 °C 7.7 °C 1025.6 hPa SSW 23.3 km/h 39.3 km/h 87% 1.0 mm 0 W/m2
23:02 9.6 °C 7.6 °C 1025.6 hPa SSW 19.5 km/h 39.3 km/h 87% 0.5 mm 0 W/m2
23:07 9.7 °C 7.5 °C 1025.6 hPa SSW 23.3 km/h 39.3 km/h 86% 0.5 mm 0 W/m2
23:12 9.9 °C 7.5 °C 1025.6 hPa SW 24.5 km/h 39.3 km/h 85% 0.5 mm 0 W/m2
23:17 9.9 °C 7.5 °C 1025.6 hPa SSW 14.8 km/h 39.3 km/h 85% 0.3 mm 0 W/m2
23:22 9.8 °C 7.4 °C 1025.6 hPa SSW 15.8 km/h 39.3 km/h 85% 0.3 mm 0 W/m2
23:27 9.9 °C 7.5 °C 1025.6 hPa SW 17.2 km/h 33.1 km/h 85% 0.0 mm 0 W/m2
23:33 10.0 °C 7.4 °C 1025.3 hPa SW 19.5 km/h 33.1 km/h 84% 0.0 mm 0 W/m2
23:38 10.0 °C 7.4 °C 1025.3 hPa SW 15.8 km/h 28.0 km/h 84% 0.0 mm 0 W/m2
23:43 9.9 °C 7.3 °C 1025.3 hPa WSW 21.9 km/h 30.6 km/h 84% 0.0 mm 0 W/m2
23:48 9.9 °C 7.3 °C 1025.3 hPa WSW 12.2 km/h 30.6 km/h 84% 0.0 mm 0 W/m2
23:53 9.7 °C 7.3 °C 1025.3 hPa SW 12.2 km/h 33.1 km/h 85% 0.3 mm 0 W/m2
23:58 9.3 °C 7.2 °C 1025.3 hPa SSW 20.9 km/h 34.3 km/h 87% 0.3 mm 0 W/m2
Northern Hawkes Bay. New Zealand Historic Data
Compliments of Weather Underground - 2 mb